sensor_id;sensor_type;location;lat;lon;timestamp;P1;durP1;ratioP1;P2;durP2;ratioP2
81180;SDS011;70650;51.408;7.132;2024-03-08T00:00:18;17.70;;;7.37;;
81180;SDS011;70650;51.408;7.132;2024-03-08T00:02:46;17.05;;;7.45;;
81180;SDS011;70650;51.408;7.132;2024-03-08T00:05:12;18.80;;;8.05;;
81180;SDS011;70650;51.408;7.132;2024-03-08T00:07:39;17.63;;;7.65;;
81180;SDS011;70650;51.408;7.132;2024-03-08T00:10:05;18.63;;;8.25;;
81180;SDS011;70650;51.408;7.132;2024-03-08T00:12:32;16.55;;;7.63;;
81180;SDS011;70650;51.408;7.132;2024-03-08T00:14:58;18.40;;;7.72;;
81180;SDS011;70650;51.408;7.132;2024-03-08T00:17:23;17.45;;;7.65;;
81180;SDS011;70650;51.408;7.132;2024-03-08T00:19:50;18.20;;;7.45;;
81180;SDS011;70650;51.408;7.132;2024-03-08T00:22:15;16.60;;;7.25;;
81180;SDS011;70650;51.408;7.132;2024-03-08T00:24:41;18.67;;;7.80;;
81180;SDS011;70650;51.408;7.132;2024-03-08T00:27:07;17.70;;;7.78;;
81180;SDS011;70650;51.408;7.132;2024-03-08T00:29:33;19.55;;;7.50;;
81180;SDS011;70650;51.408;7.132;2024-03-08T00:31:59;19.05;;;7.88;;
81180;SDS011;70650;51.408;7.132;2024-03-08T00:34:24;17.50;;;7.80;;
81180;SDS011;70650;51.408;7.132;2024-03-08T00:36:50;17.13;;;6.95;;
81180;SDS011;70650;51.408;7.132;2024-03-08T00:39:16;19.15;;;8.23;;
81180;SDS011;70650;51.408;7.132;2024-03-08T00:41:42;17.23;;;7.53;;
81180;SDS011;70650;51.408;7.132;2024-03-08T00:44:09;18.58;;;7.45;;
81180;SDS011;70650;51.408;7.132;2024-03-08T00:46:35;17.40;;;7.35;;
81180;SDS011;70650;51.408;7.132;2024-03-08T00:49:00;17.17;;;7.33;;
81180;SDS011;70650;51.408;7.132;2024-03-08T00:51:26;20.35;;;7.95;;
81180;SDS011;70650;51.408;7.132;2024-03-08T00:53:51;18.95;;;7.60;;
81180;SDS011;70650;51.408;7.132;2024-03-08T00:56:16;17.87;;;7.63;;
81180;SDS011;70650;51.408;7.132;2024-03-08T00:58:42;21.73;;;8.07;;
81180;SDS011;70650;51.408;7.132;2024-03-08T01:01:07;19.80;;;7.80;;
81180;SDS011;70650;51.408;7.132;2024-03-08T01:03:34;17.42;;;7.95;;
81180;SDS011;70650;51.408;7.132;2024-03-08T01:06:00;18.73;;;7.82;;
81180;SDS011;70650;51.408;7.132;2024-03-08T01:08:28;19.35;;;8.02;;
81180;SDS011;70650;51.408;7.132;2024-03-08T01:10:53;18.63;;;8.38;;
81180;SDS011;70650;51.408;7.132;2024-03-08T01:13:20;18.60;;;7.55;;
81180;SDS011;70650;51.408;7.132;2024-03-08T01:15:46;18.63;;;8.07;;
81180;SDS011;70650;51.408;7.132;2024-03-08T01:18:11;17.63;;;7.67;;
81180;SDS011;70650;51.408;7.132;2024-03-08T01:20:37;18.80;;;7.57;;
81180;SDS011;70650;51.408;7.132;2024-03-08T01:23:02;20.00;;;7.97;;
81180;SDS011;70650;51.408;7.132;2024-03-08T01:25:32;19.35;;;8.25;;
81180;SDS011;70650;51.408;7.132;2024-03-08T01:27:58;17.30;;;7.55;;
81180;SDS011;70650;51.408;7.132;2024-03-08T01:30:23;20.10;;;7.85;;
81180;SDS011;70650;51.408;7.132;2024-03-08T01:32:48;18.03;;;8.30;;
81180;SDS011;70650;51.408;7.132;2024-03-08T01:35:14;18.43;;;8.17;;
81180;SDS011;70650;51.408;7.132;2024-03-08T01:37:39;18.65;;;7.70;;
81180;SDS011;70650;51.408;7.132;2024-03-08T01:40:04;17.60;;;7.83;;
81180;SDS011;70650;51.408;7.132;2024-03-08T01:42:32;16.60;;;7.68;;
81180;SDS011;70650;51.408;7.132;2024-03-08T01:44:57;17.63;;;7.50;;
81180;SDS011;70650;51.408;7.132;2024-03-08T01:47:22;19.60;;;8.00;;
81180;SDS011;70650;51.408;7.132;2024-03-08T01:49:50;19.70;;;8.30;;
81180;SDS011;70650;51.408;7.132;2024-03-08T01:52:16;18.20;;;7.82;;
81180;SDS011;70650;51.408;7.132;2024-03-08T01:54:47;17.48;;;7.38;;
81180;SDS011;70650;51.408;7.132;2024-03-08T01:57:13;19.65;;;7.88;;
81180;SDS011;70650;51.408;7.132;2024-03-08T01:59:40;21.00;;;8.73;;
81180;SDS011;70650;51.408;7.132;2024-03-08T02:02:06;21.08;;;8.57;;
81180;SDS011;70650;51.408;7.132;2024-03-08T02:04:34;19.88;;;8.40;;
81180;SDS011;70650;51.408;7.132;2024-03-08T02:06:59;19.30;;;7.47;;
81180;SDS011;70650;51.408;7.132;2024-03-08T02:09:25;20.40;;;7.85;;
81180;SDS011;70650;51.408;7.132;2024-03-08T02:11:51;18.98;;;8.27;;
81180;SDS011;70650;51.408;7.132;2024-03-08T02:14:19;19.65;;;8.18;;
81180;SDS011;70650;51.408;7.132;2024-03-08T02:16:45;18.13;;;7.85;;
81180;SDS011;70650;51.408;7.132;2024-03-08T02:19:10;20.63;;;8.90;;
81180;SDS011;70650;51.408;7.132;2024-03-08T02:21:35;20.20;;;8.20;;
81180;SDS011;70650;51.408;7.132;2024-03-08T02:24:02;20.63;;;8.25;;
81180;SDS011;70650;51.408;7.132;2024-03-08T02:26:28;20.90;;;8.63;;
81180;SDS011;70650;51.408;7.132;2024-03-08T02:28:53;21.47;;;9.23;;
81180;SDS011;70650;51.408;7.132;2024-03-08T02:31:19;19.65;;;8.50;;
81180;SDS011;70650;51.408;7.132;2024-03-08T02:33:44;18.73;;;7.97;;
81180;SDS011;70650;51.408;7.132;2024-03-08T02:36:12;21.95;;;7.90;;
81180;SDS011;70650;51.408;7.132;2024-03-08T02:38:37;18.60;;;7.68;;
81180;SDS011;70650;51.408;7.132;2024-03-08T02:41:03;20.57;;;7.50;;
81180;SDS011;70650;51.408;7.132;2024-03-08T02:43:28;22.73;;;8.85;;
81180;SDS011;70650;51.408;7.132;2024-03-08T02:45:54;19.70;;;7.90;;
81180;SDS011;70650;51.408;7.132;2024-03-08T02:48:19;19.33;;;8.43;;
81180;SDS011;70650;51.408;7.132;2024-03-08T02:50:46;19.92;;;7.97;;
81180;SDS011;70650;51.408;7.132;2024-03-08T02:53:12;21.88;;;8.70;;
81180;SDS011;70650;51.408;7.132;2024-03-08T02:55:38;19.20;;;8.02;;
81180;SDS011;70650;51.408;7.132;2024-03-08T02:58:05;19.20;;;7.97;;
81180;SDS011;70650;51.408;7.132;2024-03-08T03:00:33;22.48;;;8.68;;
81180;SDS011;70650;51.408;7.132;2024-03-08T03:02:59;20.83;;;7.90;;
81180;SDS011;70650;51.408;7.132;2024-03-08T03:05:24;20.73;;;8.70;;
81180;SDS011;70650;51.408;7.132;2024-03-08T03:07:50;20.95;;;8.18;;
81180;SDS011;70650;51.408;7.132;2024-03-08T03:10:16;19.77;;;8.38;;
81180;SDS011;70650;51.408;7.132;2024-03-08T03:12:42;19.77;;;8.27;;
81180;SDS011;70650;51.408;7.132;2024-03-08T03:15:08;19.92;;;8.32;;
81180;SDS011;70650;51.408;7.132;2024-03-08T03:17:35;19.95;;;8.48;;
81180;SDS011;70650;51.408;7.132;2024-03-08T03:20:00;21.00;;;9.03;;
81180;SDS011;70650;51.408;7.132;2024-03-08T03:22:34;20.85;;;8.52;;
81180;SDS011;70650;51.408;7.132;2024-03-08T03:25:01;18.60;;;7.90;;
81180;SDS011;70650;51.408;7.132;2024-03-08T03:27:29;19.83;;;8.45;;
81180;SDS011;70650;51.408;7.132;2024-03-08T03:29:55;24.40;;;8.85;;
81180;SDS011;70650;51.408;7.132;2024-03-08T03:32:22;21.52;;;8.60;;
81180;SDS011;70650;51.408;7.132;2024-03-08T03:34:48;21.25;;;8.15;;
81180;SDS011;70650;51.408;7.132;2024-03-08T03:37:17;20.17;;;7.80;;
81180;SDS011;70650;51.408;7.132;2024-03-08T03:39:44;18.65;;;8.05;;
81180;SDS011;70650;51.408;7.132;2024-03-08T03:42:18;21.23;;;8.57;;
81180;SDS011;70650;51.408;7.132;2024-03-08T03:44:47;19.23;;;8.45;;
81180;SDS011;70650;51.408;7.132;2024-03-08T03:47:14;20.70;;;8.55;;
81180;SDS011;70650;51.408;7.132;2024-03-08T03:49:40;22.75;;;8.98;;
81180;SDS011;70650;51.408;7.132;2024-03-08T03:52:06;21.05;;;8.43;;
81180;SDS011;70650;51.408;7.132;2024-03-08T03:54:32;19.80;;;8.10;;
81180;SDS011;70650;51.408;7.132;2024-03-08T03:56:58;18.50;;;8.85;;
81180;SDS011;70650;51.408;7.132;2024-03-08T03:59:25;20.98;;;8.88;;
81180;SDS011;70650;51.408;7.132;2024-03-08T04:01:51;24.48;;;9.68;;
81180;SDS011;70650;51.408;7.132;2024-03-08T04:04:16;22.00;;;9.00;;
81180;SDS011;70650;51.408;7.132;2024-03-08T04:06:41;18.93;;;7.90;;
81180;SDS011;70650;51.408;7.132;2024-03-08T04:09:07;25.10;;;9.00;;
81180;SDS011;70650;51.408;7.132;2024-03-08T04:11:32;22.30;;;8.93;;
81180;SDS011;70650;51.408;7.132;2024-03-08T04:13:58;21.17;;;8.32;;
81180;SDS011;70650;51.408;7.132;2024-03-08T04:16:23;25.07;;;8.73;;
81180;SDS011;70650;51.408;7.132;2024-03-08T04:18:49;22.30;;;8.45;;
81180;SDS011;70650;51.408;7.132;2024-03-08T04:21:15;26.52;;;8.43;;
81180;SDS011;70650;51.408;7.132;2024-03-08T04:23:40;22.48;;;8.40;;
81180;SDS011;70650;51.408;7.132;2024-03-08T04:26:05;22.03;;;8.87;;
81180;SDS011;70650;51.408;7.132;2024-03-08T04:28:32;22.45;;;9.05;;
81180;SDS011;70650;51.408;7.132;2024-03-08T04:30:57;19.92;;;8.50;;
81180;SDS011;70650;51.408;7.132;2024-03-08T04:33:25;20.63;;;8.55;;
81180;SDS011;70650;51.408;7.132;2024-03-08T04:35:51;24.30;;;9.10;;
81180;SDS011;70650;51.408;7.132;2024-03-08T04:38:16;21.53;;;8.63;;
81180;SDS011;70650;51.408;7.132;2024-03-08T04:40:41;22.40;;;9.83;;
81180;SDS011;70650;51.408;7.132;2024-03-08T04:43:07;20.30;;;8.40;;
81180;SDS011;70650;51.408;7.132;2024-03-08T04:45:33;21.25;;;8.13;;
81180;SDS011;70650;51.408;7.132;2024-03-08T04:47:59;19.15;;;7.88;;
81180;SDS011;70650;51.408;7.132;2024-03-08T04:50:24;21.25;;;8.25;;
81180;SDS011;70650;51.408;7.132;2024-03-08T04:52:49;21.90;;;8.57;;
81180;SDS011;70650;51.408;7.132;2024-03-08T04:55:15;20.93;;;8.07;;
81180;SDS011;70650;51.408;7.132;2024-03-08T04:57:40;21.55;;;9.18;;
81180;SDS011;70650;51.408;7.132;2024-03-08T05:00:07;22.02;;;8.40;;
81180;SDS011;70650;51.408;7.132;2024-03-08T05:02:36;20.45;;;7.85;;
81180;SDS011;70650;51.408;7.132;2024-03-08T05:05:04;20.52;;;8.05;;
81180;SDS011;70650;51.408;7.132;2024-03-08T05:07:31;21.98;;;9.23;;
81180;SDS011;70650;51.408;7.132;2024-03-08T05:09:57;21.95;;;9.00;;
81180;SDS011;70650;51.408;7.132;2024-03-08T05:12:23;22.38;;;8.95;;
81180;SDS011;70650;51.408;7.132;2024-03-08T05:14:48;20.07;;;8.77;;
81180;SDS011;70650;51.408;7.132;2024-03-08T05:17:15;22.05;;;9.00;;
81180;SDS011;70650;51.408;7.132;2024-03-08T05:19:42;20.63;;;7.82;;
81180;SDS011;70650;51.408;7.132;2024-03-08T05:22:08;21.75;;;8.82;;
81180;SDS011;70650;51.408;7.132;2024-03-08T05:24:34;21.93;;;8.50;;
81180;SDS011;70650;51.408;7.132;2024-03-08T05:27:00;23.33;;;8.38;;
81180;SDS011;70650;51.408;7.132;2024-03-08T05:29:26;23.00;;;8.90;;
81180;SDS011;70650;51.408;7.132;2024-03-08T05:31:51;21.70;;;8.68;;
81180;SDS011;70650;51.408;7.132;2024-03-08T05:34:17;20.20;;;8.57;;
81180;SDS011;70650;51.408;7.132;2024-03-08T05:36:44;22.52;;;8.90;;
81180;SDS011;70650;51.408;7.132;2024-03-08T05:39:13;22.58;;;8.05;;
81180;SDS011;70650;51.408;7.132;2024-03-08T05:41:38;26.48;;;8.77;;
81180;SDS011;70650;51.408;7.132;2024-03-08T05:44:04;24.35;;;8.52;;
81180;SDS011;70650;51.408;7.132;2024-03-08T05:46:30;19.95;;;7.88;;
81180;SDS011;70650;51.408;7.132;2024-03-08T05:48:55;22.67;;;8.57;;
81180;SDS011;70650;51.408;7.132;2024-03-08T05:51:20;21.23;;;8.52;;
81180;SDS011;70650;51.408;7.132;2024-03-08T05:53:49;23.10;;;9.23;;
81180;SDS011;70650;51.408;7.132;2024-03-08T05:56:14;23.43;;;8.57;;
81180;SDS011;70650;51.408;7.132;2024-03-08T05:58:39;21.67;;;8.33;;
81180;SDS011;70650;51.408;7.132;2024-03-08T06:01:04;23.67;;;9.43;;
81180;SDS011;70650;51.408;7.132;2024-03-08T06:03:32;21.98;;;8.57;;
81180;SDS011;70650;51.408;7.132;2024-03-08T06:05:59;23.67;;;8.77;;
81180;SDS011;70650;51.408;7.132;2024-03-08T06:08:24;21.17;;;8.07;;
81180;SDS011;70650;51.408;7.132;2024-03-08T06:10:54;21.23;;;8.65;;
81180;SDS011;70650;51.408;7.132;2024-03-08T06:13:20;21.42;;;8.50;;
81180;SDS011;70650;51.408;7.132;2024-03-08T06:15:45;24.00;;;9.50;;
81180;SDS011;70650;51.408;7.132;2024-03-08T06:18:10;20.30;;;7.97;;
81180;SDS011;70650;51.408;7.132;2024-03-08T06:20:36;20.92;;;8.10;;
81180;SDS011;70650;51.408;7.132;2024-03-08T06:23:02;25.48;;;9.43;;
81180;SDS011;70650;51.408;7.132;2024-03-08T06:25:27;22.40;;;9.18;;
81180;SDS011;70650;51.408;7.132;2024-03-08T06:27:52;23.23;;;8.63;;
81180;SDS011;70650;51.408;7.132;2024-03-08T06:30:18;20.58;;;8.30;;
81180;SDS011;70650;51.408;7.132;2024-03-08T06:32:43;22.93;;;10.20;;
81180;SDS011;70650;51.408;7.132;2024-03-08T06:35:08;23.80;;;9.43;;
81180;SDS011;70650;51.408;7.132;2024-03-08T06:37:35;23.95;;;8.85;;
81180;SDS011;70650;51.408;7.132;2024-03-08T06:40:01;22.90;;;8.75;;
81180;SDS011;70650;51.408;7.132;2024-03-08T06:42:28;23.02;;;8.70;;
81180;SDS011;70650;51.408;7.132;2024-03-08T06:44:54;21.65;;;8.80;;
81180;SDS011;70650;51.408;7.132;2024-03-08T06:47:24;23.15;;;8.93;;
81180;SDS011;70650;51.408;7.132;2024-03-08T06:49:51;24.23;;;9.40;;
81180;SDS011;70650;51.408;7.132;2024-03-08T06:52:17;24.67;;;8.45;;
81180;SDS011;70650;51.408;7.132;2024-03-08T06:54:42;24.30;;;9.93;;
81180;SDS011;70650;51.408;7.132;2024-03-08T06:57:07;26.30;;;9.23;;
81180;SDS011;70650;51.408;7.132;2024-03-08T06:59:35;21.90;;;9.00;;
81180;SDS011;70650;51.408;7.132;2024-03-08T07:02:01;26.02;;;9.85;;
81180;SDS011;70650;51.408;7.132;2024-03-08T07:04:26;23.60;;;8.88;;
81180;SDS011;70650;51.408;7.132;2024-03-08T07:06:54;24.63;;;8.38;;
81180;SDS011;70650;51.408;7.132;2024-03-08T07:09:26;23.05;;;8.73;;
81180;SDS011;70650;51.408;7.132;2024-03-08T07:11:51;25.35;;;9.13;;
81180;SDS011;70650;51.408;7.132;2024-03-08T07:14:21;24.95;;;9.63;;
81180;SDS011;70650;51.408;7.132;2024-03-08T07:16:47;24.88;;;9.57;;
81180;SDS011;70650;51.408;7.132;2024-03-08T07:19:13;22.50;;;9.23;;
81180;SDS011;70650;51.408;7.132;2024-03-08T07:21:38;24.60;;;9.45;;
81180;SDS011;70650;51.408;7.132;2024-03-08T07:24:03;21.30;;;8.95;;
81180;SDS011;70650;51.408;7.132;2024-03-08T07:26:46;24.70;;;9.50;;
81180;SDS011;70650;51.408;7.132;2024-03-08T07:29:15;24.08;;;9.35;;
81180;SDS011;70650;51.408;7.132;2024-03-08T07:31:42;24.90;;;9.57;;
81180;SDS011;70650;51.408;7.132;2024-03-08T07:34:26;22.30;;;9.05;;
81180;SDS011;70650;51.408;7.132;2024-03-08T07:36:52;22.42;;;9.05;;
81180;SDS011;70650;51.408;7.132;2024-03-08T07:39:18;22.17;;;8.73;;
81180;SDS011;70650;51.408;7.132;2024-03-08T07:41:44;24.80;;;10.10;;
81180;SDS011;70650;51.408;7.132;2024-03-08T07:44:09;23.80;;;8.85;;
81180;SDS011;70650;51.408;7.132;2024-03-08T07:46:34;24.45;;;9.57;;
81180;SDS011;70650;51.408;7.132;2024-03-08T07:49:00;23.20;;;9.00;;
81180;SDS011;70650;51.408;7.132;2024-03-08T07:51:25;23.55;;;8.68;;
81180;SDS011;70650;51.408;7.132;2024-03-08T07:53:51;25.15;;;9.40;;
81180;SDS011;70650;51.408;7.132;2024-03-08T07:56:16;23.60;;;9.03;;
81180;SDS011;70650;51.408;7.132;2024-03-08T07:58:43;22.33;;;9.85;;
81180;SDS011;70650;51.408;7.132;2024-03-08T08:01:15;24.55;;;9.20;;
81180;SDS011;70650;51.408;7.132;2024-03-08T08:03:44;22.77;;;9.88;;
81180;SDS011;70650;51.408;7.132;2024-03-08T08:06:10;23.35;;;9.05;;
81180;SDS011;70650;51.408;7.132;2024-03-08T08:08:41;24.30;;;9.07;;
81180;SDS011;70650;51.408;7.132;2024-03-08T08:11:07;22.20;;;9.18;;
81180;SDS011;70650;51.408;7.132;2024-03-08T08:13:34;22.05;;;9.38;;
81180;SDS011;70650;51.408;7.132;2024-03-08T08:15:59;21.60;;;9.55;;
81180;SDS011;70650;51.408;7.132;2024-03-08T08:18:25;22.20;;;8.87;;
81180;SDS011;70650;51.408;7.132;2024-03-08T08:20:50;20.48;;;8.10;;
81180;SDS011;70650;51.408;7.132;2024-03-08T08:23:17;23.13;;;9.15;;
81180;SDS011;70650;51.408;7.132;2024-03-08T08:25:44;25.50;;;8.65;;
81180;SDS011;70650;51.408;7.132;2024-03-08T08:28:09;23.55;;;8.98;;
81180;SDS011;70650;51.408;7.132;2024-03-08T08:30:35;21.70;;;8.68;;
81180;SDS011;70650;51.408;7.132;2024-03-08T08:33:00;22.17;;;9.20;;
81180;SDS011;70650;51.408;7.132;2024-03-08T08:35:25;23.17;;;9.15;;
81180;SDS011;70650;51.408;7.132;2024-03-08T08:37:51;22.45;;;9.23;;
81180;SDS011;70650;51.408;7.132;2024-03-08T08:40:16;22.63;;;8.77;;
81180;SDS011;70650;51.408;7.132;2024-03-08T08:42:42;21.90;;;8.18;;
81180;SDS011;70650;51.408;7.132;2024-03-08T08:45:08;23.27;;;8.77;;
81180;SDS011;70650;51.408;7.132;2024-03-08T08:47:35;23.55;;;8.27;;
81180;SDS011;70650;51.408;7.132;2024-03-08T08:50:00;24.33;;;9.30;;
81180;SDS011;70650;51.408;7.132;2024-03-08T08:52:26;21.92;;;8.80;;
81180;SDS011;70650;51.408;7.132;2024-03-08T08:54:54;21.30;;;8.43;;
81180;SDS011;70650;51.408;7.132;2024-03-08T08:57:19;21.45;;;8.90;;
81180;SDS011;70650;51.408;7.132;2024-03-08T08:59:45;20.83;;;8.73;;
81180;SDS011;70650;51.408;7.132;2024-03-08T09:02:11;23.65;;;8.80;;
81180;SDS011;70650;51.408;7.132;2024-03-08T09:04:36;22.87;;;8.60;;
81180;SDS011;70650;51.408;7.132;2024-03-08T09:07:01;23.23;;;8.23;;
81180;SDS011;70650;51.408;7.132;2024-03-08T09:09:28;20.40;;;8.02;;
81180;SDS011;70650;51.408;7.132;2024-03-08T09:11:54;22.08;;;8.88;;
81180;SDS011;70650;51.408;7.132;2024-03-08T09:14:20;24.43;;;8.50;;
81180;SDS011;70650;51.408;7.132;2024-03-08T09:16:45;21.08;;;8.15;;
81180;SDS011;70650;51.408;7.132;2024-03-08T09:19:12;20.55;;;8.57;;
81180;SDS011;70650;51.408;7.132;2024-03-08T09:21:37;21.90;;;8.43;;
81180;SDS011;70650;51.408;7.132;2024-03-08T09:24:04;19.48;;;7.75;;
81180;SDS011;70650;51.408;7.132;2024-03-08T09:26:31;21.73;;;8.13;;
81180;SDS011;70650;51.408;7.132;2024-03-08T09:28:58;20.30;;;8.38;;
81180;SDS011;70650;51.408;7.132;2024-03-08T09:31:23;20.63;;;7.97;;
81180;SDS011;70650;51.408;7.132;2024-03-08T09:33:49;19.45;;;8.20;;
81180;SDS011;70650;51.408;7.132;2024-03-08T09:36:16;18.27;;;7.13;;
81180;SDS011;70650;51.408;7.132;2024-03-08T09:38:42;19.88;;;7.72;;
81180;SDS011;70650;51.408;7.132;2024-03-08T09:41:08;19.85;;;7.85;;
81180;SDS011;70650;51.408;7.132;2024-03-08T09:43:35;19.70;;;8.55;;
81180;SDS011;70650;51.408;7.132;2024-03-08T09:46:00;21.20;;;8.70;;
81180;SDS011;70650;51.408;7.132;2024-03-08T09:48:26;19.08;;;7.93;;
81180;SDS011;70650;51.408;7.132;2024-03-08T09:50:54;21.50;;;7.85;;
81180;SDS011;70650;51.408;7.132;2024-03-08T09:53:20;20.27;;;8.15;;
81180;SDS011;70650;51.408;7.132;2024-03-08T09:55:47;18.27;;;8.15;;
81180;SDS011;70650;51.408;7.132;2024-03-08T09:58:14;18.73;;;8.50;;
81180;SDS011;70650;51.408;7.132;2024-03-08T10:00:52;21.63;;;8.30;;
81180;SDS011;70650;51.408;7.132;2024-03-08T10:03:21;18.95;;;8.63;;
81180;SDS011;70650;51.408;7.132;2024-03-08T10:05:47;17.90;;;7.40;;
81180;SDS011;70650;51.408;7.132;2024-03-08T10:08:13;19.17;;;8.70;;
81180;SDS011;70650;51.408;7.132;2024-03-08T10:10:39;19.70;;;8.38;;
81180;SDS011;70650;51.408;7.132;2024-03-08T10:13:05;18.73;;;7.93;;
81180;SDS011;70650;51.408;7.132;2024-03-08T10:15:31;17.48;;;7.78;;
81180;SDS011;70650;51.408;7.132;2024-03-08T10:17:58;19.52;;;8.38;;
81180;SDS011;70650;51.408;7.132;2024-03-08T10:20:24;20.63;;;9.23;;
81180;SDS011;70650;51.408;7.132;2024-03-08T10:22:49;20.33;;;8.68;;
81180;SDS011;70650;51.408;7.132;2024-03-08T10:25:14;21.02;;;7.97;;
81180;SDS011;70650;51.408;7.132;2024-03-08T10:27:40;18.55;;;7.70;;
81180;SDS011;70650;51.408;7.132;2024-03-08T10:30:10;21.52;;;8.02;;
81180;SDS011;70650;51.408;7.132;2024-03-08T10:32:39;19.75;;;8.60;;
81180;SDS011;70650;51.408;7.132;2024-03-08T10:35:06;18.70;;;8.10;;
81180;SDS011;70650;51.408;7.132;2024-03-08T10:37:49;20.77;;;8.60;;
81180;SDS011;70650;51.408;7.132;2024-03-08T10:40:23;20.45;;;8.93;;
81180;SDS011;70650;51.408;7.132;2024-03-08T10:42:52;17.52;;;8.02;;
81180;SDS011;70650;51.408;7.132;2024-03-08T10:45:35;20.60;;;8.55;;
81180;SDS011;70650;51.408;7.132;2024-03-08T10:50:53;16.77;;;8.18;;
81180;SDS011;70650;51.408;7.132;2024-03-08T10:53:19;17.05;;;7.60;;
81180;SDS011;70650;51.408;7.132;2024-03-08T10:55:46;18.60;;;7.95;;
81180;SDS011;70650;51.408;7.132;2024-03-08T10:58:12;17.17;;;7.00;;
81180;SDS011;70650;51.408;7.132;2024-03-08T11:00:37;16.53;;;7.80;;
81180;SDS011;70650;51.408;7.132;2024-03-08T11:03:03;17.55;;;7.50;;
81180;SDS011;70650;51.408;7.132;2024-03-08T11:05:39;18.10;;;7.97;;
81180;SDS011;70650;51.408;7.132;2024-03-08T11:10:46;20.27;;;8.45;;
81180;SDS011;70650;51.408;7.132;2024-03-08T11:13:34;18.92;;;8.10;;
81180;SDS011;70650;51.408;7.132;2024-03-08T11:16:07;17.75;;;7.70;;
81180;SDS011;70650;51.408;7.132;2024-03-08T11:18:33;17.15;;;7.82;;
81180;SDS011;70650;51.408;7.132;2024-03-08T11:21:03;22.65;;;9.38;;
81180;SDS011;70650;51.408;7.132;2024-03-08T11:23:32;20.90;;;9.32;;
81180;SDS011;70650;51.408;7.132;2024-03-08T11:25:58;17.30;;;7.47;;
81180;SDS011;70650;51.408;7.132;2024-03-08T11:28:24;12.73;;;5.90;;
81180;SDS011;70650;51.408;7.132;2024-03-08T11:33:29;14.20;;;6.45;;
81180;SDS011;70650;51.408;7.132;2024-03-08T11:36:10;12.98;;;5.45;;
81180;SDS011;70650;51.408;7.132;2024-03-08T11:38:47;11.70;;;5.30;;
81180;SDS011;70650;51.408;7.132;2024-03-08T11:41:20;12.18;;;5.07;;
81180;SDS011;70650;51.408;7.132;2024-03-08T11:43:46;21.13;;;10.15;;
81180;SDS011;70650;51.408;7.132;2024-03-08T11:46:12;17.63;;;8.07;;
81180;SDS011;70650;51.408;7.132;2024-03-08T11:48:43;16.65;;;7.97;;
81180;SDS011;70650;51.408;7.132;2024-03-08T11:51:12;18.25;;;8.23;;
81180;SDS011;70650;51.408;7.132;2024-03-08T11:53:39;12.35;;;5.68;;
81180;SDS011;70650;51.408;7.132;2024-03-08T11:56:12;12.30;;;5.65;;
81180;SDS011;70650;51.408;7.132;2024-03-08T11:58:39;10.50;;;4.57;;
81180;SDS011;70650;51.408;7.132;2024-03-08T12:01:06;12.52;;;5.05;;
81180;SDS011;70650;51.408;7.132;2024-03-08T12:03:32;12.00;;;5.20;;
81180;SDS011;70650;51.408;7.132;2024-03-08T12:05:59;15.32;;;6.88;;
81180;SDS011;70650;51.408;7.132;2024-03-08T12:08:25;14.60;;;6.93;;
81180;SDS011;70650;51.408;7.132;2024-03-08T12:10:53;17.90;;;7.57;;
81180;SDS011;70650;51.408;7.132;2024-03-08T12:13:24;13.75;;;5.78;;
81180;SDS011;70650;51.408;7.132;2024-03-08T12:15:57;11.13;;;4.97;;
81180;SDS011;70650;51.408;7.132;2024-03-08T12:18:24;10.90;;;4.90;;
81180;SDS011;70650;51.408;7.132;2024-03-08T12:20:50;11.48;;;5.00;;
81180;SDS011;70650;51.408;7.132;2024-03-08T12:23:15;12.60;;;5.33;;
81180;SDS011;70650;51.408;7.132;2024-03-08T12:25:41;11.73;;;4.65;;
81180;SDS011;70650;51.408;7.132;2024-03-08T12:28:07;11.40;;;4.85;;
81180;SDS011;70650;51.408;7.132;2024-03-08T12:30:47;12.55;;;5.05;;
81180;SDS011;70650;51.408;7.132;2024-03-08T12:35:39;11.50;;;5.20;;
81180;SDS011;70650;51.408;7.132;2024-03-08T12:38:05;13.10;;;4.85;;
81180;SDS011;70650;51.408;7.132;2024-03-08T12:40:33;11.05;;;4.80;;
81180;SDS011;70650;51.408;7.132;2024-03-08T12:42:59;10.55;;;4.88;;
81180;SDS011;70650;51.408;7.132;2024-03-08T12:45:26;11.63;;;5.32;;
81180;SDS011;70650;51.408;7.132;2024-03-08T12:47:52;10.52;;;4.10;;
81180;SDS011;70650;51.408;7.132;2024-03-08T12:50:21;10.90;;;4.55;;
81180;SDS011;70650;51.408;7.132;2024-03-08T12:52:47;13.10;;;4.40;;
81180;SDS011;70650;51.408;7.132;2024-03-08T12:55:13;9.93;;;4.10;;
81180;SDS011;70650;51.408;7.132;2024-03-08T12:57:39;11.48;;;4.53;;
81180;SDS011;70650;51.408;7.132;2024-03-08T13:00:04;9.25;;;3.88;;
81180;SDS011;70650;51.408;7.132;2024-03-08T13:02:31;10.95;;;4.82;;
81180;SDS011;70650;51.408;7.132;2024-03-08T13:05:00;9.90;;;4.05;;
81180;SDS011;70650;51.408;7.132;2024-03-08T13:07:26;11.95;;;3.92;;
81180;SDS011;70650;51.408;7.132;2024-03-08T13:09:54;9.07;;;3.97;;
81180;SDS011;70650;51.408;7.132;2024-03-08T13:12:23;9.98;;;4.20;;
81180;SDS011;70650;51.408;7.132;2024-03-08T13:14:48;9.00;;;3.90;;
81180;SDS011;70650;51.408;7.132;2024-03-08T13:17:14;10.45;;;3.70;;
81180;SDS011;70650;51.408;7.132;2024-03-08T13:19:40;10.13;;;3.65;;
81180;SDS011;70650;51.408;7.132;2024-03-08T13:22:06;9.07;;;3.75;;
81180;SDS011;70650;51.408;7.132;2024-03-08T13:24:33;9.05;;;3.28;;
81180;SDS011;70650;51.408;7.132;2024-03-08T13:26:59;9.35;;;3.70;;
81180;SDS011;70650;51.408;7.132;2024-03-08T13:29:24;8.70;;;3.30;;
81180;SDS011;70650;51.408;7.132;2024-03-08T13:31:50;7.88;;;3.35;;
81180;SDS011;70650;51.408;7.132;2024-03-08T13:34:17;9.32;;;3.83;;
81180;SDS011;70650;51.408;7.132;2024-03-08T13:36:43;8.85;;;3.60;;
81180;SDS011;70650;51.408;7.132;2024-03-08T13:39:10;7.82;;;3.40;;
81180;SDS011;70650;51.408;7.132;2024-03-08T13:41:41;8.32;;;3.65;;
81180;SDS011;70650;51.408;7.132;2024-03-08T13:44:07;9.55;;;3.67;;
81180;SDS011;70650;51.408;7.132;2024-03-08T13:46:33;8.55;;;3.78;;
81180;SDS011;70650;51.408;7.132;2024-03-08T13:49:03;8.45;;;3.40;;
81180;SDS011;70650;51.408;7.132;2024-03-08T13:51:34;8.85;;;3.90;;
81180;SDS011;70650;51.408;7.132;2024-03-08T13:54:00;7.95;;;3.67;;
81180;SDS011;70650;51.408;7.132;2024-03-08T13:56:28;8.63;;;4.07;;
81180;SDS011;70650;51.408;7.132;2024-03-08T13:58:57;9.98;;;3.90;;
81180;SDS011;70650;51.408;7.132;2024-03-08T14:01:22;8.13;;;3.33;;
81180;SDS011;70650;51.408;7.132;2024-03-08T14:03:48;8.52;;;3.72;;
81180;SDS011;70650;51.408;7.132;2024-03-08T14:06:13;9.52;;;3.75;;
81180;SDS011;70650;51.408;7.132;2024-03-08T14:08:38;7.87;;;3.90;;
81180;SDS011;70650;51.408;7.132;2024-03-08T14:11:04;10.13;;;3.83;;
81180;SDS011;70650;51.408;7.132;2024-03-08T14:13:43;10.32;;;4.00;;
81180;SDS011;70650;51.408;7.132;2024-03-08T14:16:12;9.10;;;3.72;;
81180;SDS011;70650;51.408;7.132;2024-03-08T14:18:38;9.05;;;3.78;;
81180;SDS011;70650;51.408;7.132;2024-03-08T14:21:04;8.60;;;4.10;;
81180;SDS011;70650;51.408;7.132;2024-03-08T14:23:30;8.02;;;3.72;;
81180;SDS011;70650;51.408;7.132;2024-03-08T14:25:57;10.07;;;4.25;;
81180;SDS011;70650;51.408;7.132;2024-03-08T14:28:24;9.60;;;4.28;;
81180;SDS011;70650;51.408;7.132;2024-03-08T14:30:49;8.48;;;4.13;;
81180;SDS011;70650;51.408;7.132;2024-03-08T14:33:15;9.88;;;4.35;;
81180;SDS011;70650;51.408;7.132;2024-03-08T14:35:41;12.07;;;4.20;;
81180;SDS011;70650;51.408;7.132;2024-03-08T14:38:08;10.45;;;4.40;;
81180;SDS011;70650;51.408;7.132;2024-03-08T14:40:33;10.63;;;4.83;;
81180;SDS011;70650;51.408;7.132;2024-03-08T14:42:59;10.15;;;4.50;;